LIPZLDSP

Guest
Details From LIPZ - Venezia Tessera
To LDSP - SPLIT
Flight Number -
Tags decoded
Created
Modified
Stats Distance 209 nm / 387 km
Max Altitude 0 ft / 0 m
Waypoints 7
Social Downloads 3
Likes 0
Share VATSIM

Download

Looking for another format? Having issues loading an existing format? Contact us
Advertisement - Login to hide

Notes

Requested: LIPZ ROTAR P11 PUL N606 LOS W45 SAL LDSP

Route

LIPZ ROTAR P11 PUL LOS SAL LDSP

ID Type Via Altitude Latitude Longitude Leg Dist Tot Dist Heading (true) Name
O LIPZ APT - 0 ft / 0 m 45.50479˚ 12.34969˚ - 0 nm - Venezia Tessera
ROTAR FIX - 0 ft / 0 m 45.26278˚ 12.99556˚ 30 nm 30 nm 118° / 118° -
BAKSO FIX P11 (AWY-LO) 0 ft / 0 m 45.06389˚ 13.49444˚ 24 nm 55 nm 119° / 120° -
PUL VOR P11 (AWY-LO) 0 ft / 0 m 44.89237˚ 13.91813˚ 20 nm 75 nm 120° / 120° PULA VOR-DME
LOS NDB - 0 ft / 0 m 44.52710˚ 14.47285˚ 32 nm 108 nm 133° / 133° LOSINJ NDB
SAL NDB - 0 ft / 0 m 43.93786˚ 15.16811˚ 46 nm 154 nm 140° / 140° SALI NDB
O LDSP APT - 0 ft / 0 m 43.53903˚ 16.29811˚ 54 nm 209 nm 116° / 116° SPLIT

Altitude Profile

Advertisement - Login to hide

Weather


0- 5 10 15 20 25 30 35+ Temperature / ° C

Clouds and Precipitation
Forecast for 2018-05-28 00:00 UTC. Updated 6 hours ago

Ground ~20,000 ft ~40,000 ft Winds

LIPZ

Details ICAO LIPZ (VCE)
Name Venezia Tessera
Region Italy
Timezone Europe/Rome (UTC+2.0)
Stats Elevation 7 ft / 2 m (AMSL)
Location 45.504791° 12.349691°
Runways 2
Magnetic Variation 3.231° E

METAR

Not found

TAF

TAF LIPZ 272300Z 2800/2906 VRB05KT 9999 FEW040 BECMG 2810/2812 14010KT TEMPO 2812/2818 TSRA BECMG 2817/2819 VRB05KT

Decode

Departure Runways

ID Width Length Bearing (true) Bearing (mag) Surface Threshold Offset Overrun Length
04L 148 ft / 45 m 9,112 ft / 2,777 m 42.01° 38.78° Asphalt 312 ft / 95 m 0 ft / 0 m
04R 148 ft / 45 m 10,834 ft / 3,302 m 41.99° 38.76° Asphalt 0 ft / 0 m 0 ft / 0 m
22L 148 ft / 45 m 10,834 ft / 3,302 m 222.01° 218.78° Asphalt 0 ft / 0 m 0 ft / 0 m
22R 148 ft / 45 m 9,112 ft / 2,777 m 222.02° 218.79° Asphalt 0 ft / 0 m 0 ft / 0 m

LDSP

Details ICAO LDSP (SPU)
Name SPLIT
Region Croatia
Timezone Europe/Zagreb (UTC+2.0)
Stats Elevation 79 ft / 24 m (AMSL)
Location 43.539026° 16.298112°
Runways 1
Magnetic Variation 3.885° E

METAR

Not found

TAF

TAF LDSP 272325Z 2800/2900 31006KT CAVOK TX29/2812Z TN20/2804Z BECMG 2809/2811 23010KT BECMG 2815/2817 23006KT BECMG 2817/2819 33005KT

Decode

Destination Runways

ID Width Length Bearing (true) Bearing (mag) Surface Threshold Offset Overrun Length
05 148 ft / 45 m 8,357 ft / 2,547 m 52.48° 48.59° Asphalt 0 ft / 0 m 76 ft / 23 m
23 148 ft / 45 m 8,357 ft / 2,547 m 232.50° 228.61° Asphalt 525 ft / 160 m 820 ft / 250 m

Approach Navaids

Runway Type Ident Frequency Range Bearing (true) Bearing (mag) Slope Elevation
05 Localiser IST 110.50 MHz 25 nm / 46 km 52.57° 48.68° - 69 ft / 21 m (AMSL)
05 Glidescope IST 110.50 MHz 25 nm / 46 km 52.57° 48.68° 3.00° 52 ft / 16 m (AMSL)

Popular Alternatives